Time;durP1;ratioP1;P1;durP2;ratioP2;P2;SDS_P1;SDS_P2;PMS_P1;PMS_P2;Temp;Humidity;BMP_temperature;BMP_pressure;BME280_temperature;BME280_humidity;BME280_pressure;Samples;Min_cycle;Max_cycle;Signal;HPM_P1;HPM_P2
2021/12/08 00:00:56;;;;;;;6.40;1.65;;;3.90;99.90;;;;;;5030952;28;20044;-64
2021/12/08 00:03:23;;;;;;;5.43;2.25;;;4.00;99.90;;;;;;5033175;28;20034;-62
2021/12/08 00:05:50;;;;;;;5.15;2.10;;;4.00;99.90;;;;;;5032741;28;20471;-78
2021/12/08 00:08:18;;;;;;;5.40;2.58;;;3.90;99.90;;;;;;5032490;28;20034;-60
2021/12/08 00:13:27;;;;;;;3.97;1.42;;;4.00;99.90;;;;;;5034268;28;20025;-69
2021/12/08 00:15:56;;;;;;;4.97;1.70;;;4.00;99.90;;;;;;5033260;28;20183;-67
2021/12/08 00:18:26;;;;;;;5.65;1.77;;;4.00;99.90;;;;;;5033930;28;20045;-60
2021/12/08 00:20:55;;;;;;;5.40;1.83;;;4.10;99.90;;;;;;5030850;28;20041;-68
2021/12/08 00:23:24;;;;;;;2.83;1.30;;;4.10;99.90;;;;;;5026339;28;20029;-66
2021/12/08 00:25:52;;;;;;;3.58;1.45;;;4.10;99.90;;;;;;5033043;28;20029;-81
2021/12/08 00:28:18;;;;;;;4.38;1.60;;;4.10;99.90;;;;;;5032683;28;20056;-59
2021/12/08 00:30:49;;;;;;;6.03;1.38;;;4.10;99.90;;;;;;5031983;28;20033;-63
2021/12/08 00:33:15;;;;;;;5.55;2.17;;;4.10;99.90;;;;;;5032944;28;20026;-68
2021/12/08 00:35:44;;;;;;;5.15;1.60;;;4.20;99.90;;;;;;5033198;28;20118;-57
2021/12/08 00:38:10;;;;;;;3.33;1.27;;;4.10;99.90;;;;;;5032432;28;20021;-61
2021/12/08 00:40:35;;;;;;;1.98;1.40;;;4.20;99.90;;;;;;5032990;28;20394;-61
2021/12/08 00:43:02;;;;;;;7.13;1.25;;;4.20;99.90;;;;;;5032486;28;20475;-61
2021/12/08 00:45:29;;;;;;;3.58;1.48;;;4.20;99.90;;;;;;5033239;28;20033;-58
2021/12/08 00:47:56;;;;;;;4.20;1.45;;;4.20;99.90;;;;;;5032844;28;20112;-57
2021/12/08 00:50:25;;;;;;;6.20;1.90;;;4.20;99.90;;;;;;5033418;28;20037;-60
2021/12/08 00:52:51;;;;;;;2.35;1.55;;;4.30;99.90;;;;;;5032684;28;20124;-63
2021/12/08 00:55:19;;;;;;;6.03;1.50;;;4.20;99.90;;;;;;5033097;28;20034;-59
2021/12/08 00:57:45;;;;;;;3.58;1.58;;;4.10;99.90;;;;;;5030474;28;20053;-59
2021/12/08 01:00:21;;;;;;;2.78;1.20;;;4.00;99.90;;;;;;5031907;28;20163;-66
2021/12/08 01:02:47;;;;;;;4.05;1.45;;;4.00;99.90;;;;;;5031894;28;20040;-63
2021/12/08 01:05:17;;;;;;;2.92;0.90;;;4.10;99.90;;;;;;5029374;28;20044;-62
2021/12/08 01:07:43;;;;;;;3.58;1.27;;;4.10;99.90;;;;;;5030860;28;20464;-61
2021/12/08 01:10:13;;;;;;;3.30;1.58;;;4.10;99.90;;;;;;5031530;28;20029;-55
2021/12/08 01:12:39;;;;;;;3.72;1.20;;;4.00;99.90;;;;;;5033031;28;20041;-63
2021/12/08 01:15:06;;;;;;;4.03;1.23;;;4.00;99.90;;;;;;5030874;28;20026;-62
2021/12/08 01:17:32;;;;;;;3.40;1.52;;;4.00;99.90;;;;;;5032244;28;20403;-62
2021/12/08 01:19:58;;;;;;;1.98;0.98;;;4.10;99.90;;;;;;5032445;28;20038;-59
2021/12/08 01:22:24;;;;;;;6.55;1.40;;;4.10;99.90;;;;;;5032382;28;20402;-62
2021/12/08 01:24:50;;;;;;;3.63;1.20;;;4.10;99.90;;;;;;5032395;28;20028;-60
2021/12/08 01:27:15;;;;;;;3.60;1.40;;;4.10;99.90;;;;;;5031988;28;20102;-56
2021/12/08 01:29:41;;;;;;;4.00;1.08;;;4.10;99.90;;;;;;5032525;28;20438;-61
2021/12/08 01:32:07;;;;;;;5.07;1.42;;;4.00;99.90;;;;;;5030696;28;20406;-62
2021/12/08 01:34:33;;;;;;;3.58;1.05;;;4.20;99.90;;;;;;5032451;28;20037;-65
2021/12/08 01:36:59;;;;;;;3.05;0.93;;;4.20;99.90;;;;;;5031001;28;20486;-53
2021/12/08 01:39:25;;;;;;;6.07;0.75;;;4.10;99.90;;;;;;5029553;28;20025;-60
2021/12/08 01:41:53;;;;;;;4.35;2.33;;;4.10;99.90;;;;;;5031352;28;20112;-59
2021/12/08 01:47:03;;;;;;;6.40;1.40;;;3.90;99.90;;;;;;5031282;28;20132;-58
2021/12/08 01:49:29;;;;;;;3.47;0.93;;;3.90;99.90;;;;;;5032283;28;20459;-68
2021/12/08 01:51:54;;;;;;;1.23;0.65;;;3.80;99.90;;;;;;5031277;28;20056;-67
2021/12/08 01:54:20;;;;;;;1.65;0.70;;;3.80;99.90;;;;;;5030723;28;20048;-64
2021/12/08 01:56:46;;;;;;;1.80;0.88;;;3.70;99.90;;;;;;5032277;28;20356;-67
2021/12/08 01:59:11;;;;;;;1.67;0.60;;;3.80;99.90;;;;;;5031546;28;20060;-59
2021/12/08 02:01:41;;;;;;;4.72;1.00;;;3.80;99.90;;;;;;5031693;28;20056;-58
2021/12/08 02:04:07;;;;;;;3.33;0.68;;;3.70;99.90;;;;;;5031490;28;20096;-54
2021/12/08 02:06:35;;;;;;;3.50;0.70;;;3.60;99.90;;;;;;5031090;28;20073;-65
2021/12/08 02:09:04;;;;;;;1.67;0.80;;;3.60;99.90;;;;;;5031379;28;20045;-63
2021/12/08 02:11:30;;;;;;;3.90;1.00;;;3.70;99.90;;;;;;5031990;28;20087;-67
2021/12/08 02:14:00;;;;;;;3.75;0.80;;;3.60;99.90;;;;;;5030072;28;20025;-74
2021/12/08 02:16:28;;;;;;;2.22;1.45;;;3.50;99.90;;;;;;5031728;28;20048;-67
2021/12/08 02:18:54;;;;;;;2.70;0.75;;;3.50;99.90;;;;;;5030117;28;20384;-60
2021/12/08 02:21:22;;;;;;;3.45;1.00;;;3.40;99.90;;;;;;5029874;28;20037;-57
2021/12/08 02:23:48;;;;;;;4.65;0.90;;;3.30;99.90;;;;;;5031277;28;20033;-61
2021/12/08 02:26:14;;;;;;;4.10;1.30;;;3.30;99.90;;;;;;5031259;28;20025;-60
2021/12/08 02:28:40;;;;;;;1.73;0.82;;;3.10;99.90;;;;;;5031598;28;20037;-59
2021/12/08 02:31:10;;;;;;;2.00;1.20;;;3.10;99.90;;;;;;5031046;28;20061;-55
2021/12/08 02:50:04;;;;;;;3.70;1.05;;;2.80;99.90;;;;;;5030981;28;20124;-59
2021/12/08 02:52:29;;;;;;;2.67;0.70;;;3.00;99.90;;;;;;5031305;28;20033;-62
2021/12/08 02:55:03;;;;;;;3.47;1.00;;;3.00;99.90;;;;;;5031062;28;20021;-61
2021/12/08 02:57:28;;;;;;;2.67;1.27;;;2.90;99.90;;;;;;5029867;28;20033;-60
2021/12/08 02:59:54;;;;;;;4.63;1.20;;;2.90;99.90;;;;;;5013424;28;20419;-61
2021/12/08 03:02:20;;;;;;;1.77;0.82;;;3.00;99.90;;;;;;5030648;28;20056;-67
2021/12/08 03:04:46;;;;;;;3.17;1.38;;;3.00;99.90;;;;;;5031241;28;20026;-58
2021/12/08 03:07:12;;;;;;;1.95;1.27;;;3.00;99.90;;;;;;5030792;28;20040;-62
2021/12/08 03:09:38;;;;;;;4.50;0.90;;;3.00;99.90;;;;;;5029920;28;20025;-61
2021/12/08 03:12:05;;;;;;;1.80;1.02;;;3.00;99.90;;;;;;5029306;28;20029;-68
2021/12/08 03:14:30;;;;;;;3.70;1.05;;;3.10;99.90;;;;;;5031080;28;20025;-59
2021/12/08 03:17:03;;;;;;;2.00;1.00;;;3.10;99.90;;;;;;5030924;28;20431;-66
2021/12/08 03:19:30;;;;;;;2.10;0.90;;;3.10;99.90;;;;;;5031071;28;20057;-55
2021/12/08 03:21:56;;;;;;;1.02;0.90;;;3.10;99.90;;;;;;5029585;28;20037;-64
2021/12/08 03:24:30;;;;;;;1.55;0.90;;;3.10;99.90;;;;;;5030436;28;20108;-54
2021/12/08 03:27:08;;;;;;;2.47;1.23;;;3.10;99.90;;;;;;5029313;28;20451;-63
2021/12/08 03:29:59;;;;;;;2.20;1.30;;;3.20;99.90;;;;;;5030739;28;20476;-65
2021/12/08 03:32:34;;;;;;;3.17;1.30;;;3.10;99.90;;;;;;5030752;28;20391;-61
2021/12/08 03:35:00;;;;;;;3.25;1.27;;;3.10;99.90;;;;;;5033374;28;20021;-54
2021/12/08 03:37:27;;;;;;;4.13;2.13;;;3.30;99.90;;;;;;5034557;28;20028;-60
2021/12/08 03:39:54;;;;;;;2.97;1.80;;;3.30;99.90;;;;;;5033104;28;20112;-64
2021/12/08 03:42:23;;;;;;;2.33;1.15;;;3.30;99.90;;;;;;5034041;28;20401;-59
2021/12/08 03:44:51;;;;;;;3.72;1.38;;;3.30;99.90;;;;;;5034423;28;20096;-68
2021/12/08 03:47:24;;;;;;;3.10;1.20;;;3.30;99.90;;;;;;5033605;28;20030;-59
2021/12/08 03:49:50;;;;;;;4.22;1.55;;;3.40;99.90;;;;;;5032949;28;20124;-66
2021/12/08 03:52:16;;;;;;;1.95;1.20;;;3.40;99.90;;;;;;5033704;28;20049;-61
2021/12/08 03:54:42;;;;;;;1.77;1.40;;;3.50;99.90;;;;;;5034278;28;20375;-68
2021/12/08 03:57:08;;;;;;;3.33;1.77;;;3.30;99.90;;;;;;5033736;28;20481;-67
2021/12/08 03:59:34;;;;;;;3.42;1.20;;;3.30;99.90;;;;;;5034517;28;20030;-63
2021/12/08 04:01:59;;;;;;;3.30;1.27;;;3.40;99.90;;;;;;5032703;28;20049;-57
2021/12/08 04:04:28;;;;;;;1.88;1.20;;;3.40;99.90;;;;;;5033676;28;20031;-60
2021/12/08 04:06:56;;;;;;;3.25;1.48;;;3.40;99.90;;;;;;5032756;28;20025;-62
2021/12/08 04:09:32;;;;;;;2.80;1.10;;;3.40;99.90;;;;;;5033593;28;20197;-62
2021/12/08 04:11:59;;;;;;;2.58;0.98;;;3.40;99.90;;;;;;5017538;28;20033;-62
2021/12/08 04:14:30;;;;;;;4.63;1.23;;;3.40;99.90;;;;;;5033736;28;20060;-58
2021/12/08 04:17:04;;;;;;;3.90;2.05;;;3.40;99.90;;;;;;5033685;28;20497;-65
2021/12/08 04:19:30;;;;;;;2.25;1.25;;;3.40;99.90;;;;;;5032165;28;20132;-57
2021/12/08 04:22:00;;;;;;;5.15;1.30;;;3.50;99.90;;;;;;5033801;28;20124;-56
2021/12/08 04:24:26;;;;;;;2.83;1.05;;;3.60;99.90;;;;;;5033077;28;20033;-62
2021/12/08 04:27:00;;;;;;;1.95;1.15;;;3.70;99.90;;;;;;5032334;28;20026;-60
2021/12/08 04:29:31;;;;;;;4.55;1.48;;;3.70;99.90;;;;;;5033058;28;20034;-60
2021/12/08 04:31:58;;;;;;;2.58;1.10;;;3.70;99.90;;;;;;5033569;28;20493;-67
2021/12/08 04:34:27;;;;;;;2.50;0.93;;;3.80;99.90;;;;;;5033046;28;20036;-58
2021/12/08 04:36:56;;;;;;;5.35;2.25;;;3.90;99.90;;;;;;5033676;28;20028;-66
2021/12/08 04:39:31;;;;;;;4.05;1.30;;;3.90;99.90;;;;;;5031617;28;20036;-55
2021/12/08 04:42:05;;;;;;;1.77;1.08;;;3.90;99.90;;;;;;5033367;28;20128;-58
2021/12/08 04:44:42;;;;;;;2.72;1.10;;;3.90;99.90;;;;;;5031675;28;20115;-60
2021/12/08 04:52:40;;;;;;;3.60;1.35;;;3.60;99.90;;;;;;5032837;28;20536;-58
2021/12/08 05:08:41;;;;;;;2.30;1.27;;;3.70;99.90;;;;;;5032775;28;20029;-61
2021/12/08 05:11:27;;;;;;;2.80;1.20;;;3.80;99.90;;;;;;5032276;28;20060;-61
2021/12/08 05:13:59;;;;;;;3.10;1.38;;;3.80;99.90;;;;;;5032379;28;20029;-68
2021/12/08 05:16:28;;;;;;;1.60;1.17;;;3.90;99.90;;;;;;5031615;28;20061;-58
2021/12/08 05:18:56;;;;;;;4.18;1.35;;;3.90;99.90;;;;;;5047566;28;20136;-60
2021/12/08 05:21:38;;;;;;;2.40;1.38;;;4.00;99.90;;;;;;5030391;28;20109;-60
2021/12/08 05:24:17;;;;;;;3.58;1.50;;;4.00;99.90;;;;;;5032381;28;20040;-59
2021/12/08 05:26:58;;;;;;;3.47;1.50;;;4.00;99.90;;;;;;5031180;28;20030;-60
2021/12/08 05:29:30;;;;;;;4.88;1.20;;;4.00;99.90;;;;;;5030622;28;20052;-62
2021/12/08 05:31:58;;;;;;;3.70;1.30;;;3.90;99.90;;;;;;5031969;28;20041;-59
2021/12/08 05:34:24;;;;;;;3.13;1.30;;;4.00;99.90;;;;;;5031543;28;20414;-64
2021/12/08 05:36:50;;;;;;;2.90;1.35;;;4.00;99.90;;;;;;5030939;28;20029;-59
2021/12/08 05:39:20;;;;;;;4.90;2.13;;;4.10;99.90;;;;;;5032143;28;20097;-62
2021/12/08 05:41:49;;;;;;;3.78;1.70;;;4.10;99.90;;;;;;5032295;28;20040;-61
2021/12/08 05:44:15;;;;;;;5.45;1.30;;;4.20;99.90;;;;;;5030046;28;20036;-60
2021/12/08 05:46:46;;;;;;;3.78;2.05;;;4.10;99.90;;;;;;5032389;28;20036;-64
2021/12/08 05:49:15;;;;;;;3.72;1.50;;;4.20;99.90;;;;;;5031835;28;20034;-61
2021/12/08 05:51:42;;;;;;;4.10;2.13;;;4.00;99.90;;;;;;5030356;28;20041;-60
2021/12/08 05:54:17;;;;;;;6.32;2.22;;;4.20;99.90;;;;;;5030441;28;20393;-66
2021/12/08 05:56:44;;;;;;;4.65;1.63;;;4.20;99.90;;;;;;5031624;28;20032;-59
2021/12/08 05:59:13;;;;;;;5.40;1.55;;;4.20;99.90;;;;;;5029106;28;20171;-61
2021/12/08 06:01:41;;;;;;;3.05;1.35;;;4.20;99.90;;;;;;5030030;28;20379;-69
2021/12/08 06:04:09;;;;;;;3.25;1.75;;;4.10;99.90;;;;;;5031764;28;20113;-60
2021/12/08 06:06:36;;;;;;;3.75;1.70;;;4.20;99.90;;;;;;5030331;28;20029;-60
2021/12/08 06:09:05;;;;;;;6.45;2.50;;;4.20;99.90;;;;;;5031288;28;20121;-60
2021/12/08 06:11:32;;;;;;;6.32;2.65;;;4.00;99.90;;;;;;5030268;28;20474;-62
2021/12/08 06:14:00;;;;;;;3.45;2.00;;;4.00;99.90;;;;;;5031356;28;20120;-62
2021/12/08 06:16:28;;;;;;;6.28;2.30;;;4.00;99.90;;;;;;5030783;28;20482;-60
2021/12/08 06:18:55;;;;;;;5.50;1.45;;;4.10;99.90;;;;;;5031201;28;20052;-60
2021/12/08 06:21:24;;;;;;;4.78;1.92;;;4.10;99.90;;;;;;5030365;28;20034;-61
2021/12/08 06:23:50;;;;;;;4.85;2.38;;;4.10;99.90;;;;;;5029730;28;20033;-62
2021/12/08 06:26:19;;;;;;;6.88;2.08;;;4.20;99.90;;;;;;5030283;28;20352;-60
2021/12/08 06:28:45;;;;;;;3.97;2.08;;;4.30;99.90;;;;;;5031727;28;20108;-59
2021/12/08 06:31:12;;;;;;;2.30;2.03;;;4.20;99.90;;;;;;5030493;28;20029;-80
2021/12/08 06:33:38;;;;;;;4.55;2.17;;;4.30;99.90;;;;;;5031785;28;20060;-64
2021/12/08 06:36:09;;;;;;;6.32;1.90;;;4.30;99.90;;;;;;5031183;28;20125;-62
2021/12/08 06:38:35;;;;;;;6.22;2.60;;;4.40;99.90;;;;;;5028990;28;20029;-62
2021/12/08 06:41:28;;;;;;;2.75;1.90;;;4.50;99.90;;;;;;5031056;28;20029;-59
2021/12/08 06:43:58;;;;;;;2.95;1.92;;;4.60;99.90;;;;;;5029735;28;20120;-61
2021/12/08 06:46:26;;;;;;;6.35;1.90;;;4.40;99.90;;;;;;5028890;28;20033;-60
2021/12/08 06:48:56;;;;;;;2.47;1.25;;;4.30;99.90;;;;;;5028972;28;20029;-60
2021/12/08 06:51:32;;;;;;;2.15;1.60;;;4.30;99.90;;;;;;5028645;28;20048;-61
2021/12/08 06:54:06;;;;;;;4.72;1.33;;;4.20;99.90;;;;;;5030550;28;20033;-64
2021/12/08 06:56:37;;;;;;;4.00;1.55;;;4.20;99.90;;;;;;5029937;28;20255;-61
2021/12/08 06:59:11;;;;;;;1.65;1.50;;;4.30;99.90;;;;;;5030725;28;20138;-59
2021/12/08 07:01:56;;;;;;;2.35;1.42;;;4.40;99.90;;;;;;5030287;28;20123;-61
2021/12/08 07:07:45;;;;;;;4.90;1.80;;;4.50;99.90;;;;;;5036891;28;20041;-59
2021/12/08 07:10:21;;;;;;;4.28;2.13;;;4.60;99.90;;;;;;5033634;28;20033;-55
2021/12/08 07:12:51;;;;;;;6.78;1.90;;;4.40;99.90;;;;;;5034632;28;20479;-61
2021/12/08 07:15:20;;;;;;;5.35;2.47;;;4.20;99.90;;;;;;5032587;28;20390;-60
2021/12/08 07:17:50;;;;;;;3.67;1.65;;;4.20;99.90;;;;;;5034400;28;20134;-59
2021/12/08 07:23:04;;;;;;;3.03;1.50;;;4.50;99.90;;;;;;5034298;28;20028;-54
2021/12/08 07:25:33;;;;;;;3.78;1.52;;;4.50;99.90;;;;;;5032416;28;20025;-57
2021/12/08 07:27:59;;;;;;;4.80;1.85;;;4.50;99.90;;;;;;5032432;28;20037;-58
2021/12/08 07:30:41;;;;;;;4.60;1.88;;;4.50;99.90;;;;;;5032237;28;20030;-59
2021/12/08 07:33:08;;;;;;;5.03;1.67;;;4.50;99.90;;;;;;5033952;28;20027;-61
2021/12/08 07:35:42;;;;;;;7.55;2.00;;;4.60;99.90;;;;;;5033728;28;20025;-64
2021/12/08 07:38:11;;;;;;;3.65;2.28;;;4.60;99.90;;;;;;5034604;28;20083;-62
2021/12/08 07:40:43;;;;;;;5.10;1.80;;;4.70;99.90;;;;;;5034212;28;20040;-61
2021/12/08 07:43:14;;;;;;;3.33;1.90;;;4.70;99.90;;;;;;5033977;28;20367;-61
2021/12/08 07:45:46;;;;;;;4.05;1.92;;;4.60;99.90;;;;;;5032361;28;20040;-57
2021/12/08 07:48:21;;;;;;;5.47;2.17;;;4.70;99.90;;;;;;5015592;28;20029;-61
2021/12/08 07:50:56;;;;;;;4.07;1.83;;;4.70;99.90;;;;;;5033644;28;20204;-60
2021/12/08 07:53:24;;;;;;;5.55;1.58;;;4.50;99.90;;;;;;5033515;28;20087;-62
2021/12/08 07:55:52;;;;;;;2.15;1.38;;;4.60;99.90;;;;;;5032394;28;20025;-60
2021/12/08 07:58:20;;;;;;;3.03;1.90;;;4.50;99.90;;;;;;5033296;28;20040;-63
2021/12/08 08:00:50;;;;;;;6.40;1.60;;;4.50;99.90;;;;;;5032331;28;20030;-62
2021/12/08 08:03:18;;;;;;;2.75;1.45;;;4.50;99.90;;;;;;5033183;28;20030;-83
2021/12/08 08:05:45;;;;;;;2.50;1.85;;;4.70;99.90;;;;;;5033736;28;20038;-60
2021/12/08 08:08:14;;;;;;;2.42;1.70;;;4.50;99.90;;;;;;5032089;28;20037;-60
2021/12/08 08:10:45;;;;;;;5.90;2.50;;;4.50;99.90;;;;;;5032992;28;20021;-59
2021/12/08 08:13:12;;;;;;;3.60;1.97;;;4.60;99.90;;;;;;5032397;28;20091;-60
2021/12/08 08:15:44;;;;;;;4.32;1.85;;;4.90;99.90;;;;;;5031817;28;20021;-60
2021/12/08 08:18:14;;;;;;;4.05;2.00;;;4.80;99.90;;;;;;5031946;28;20060;-62
2021/12/08 08:20:47;;;;;;;2.60;1.65;;;4.70;99.90;;;;;;5031821;28;20045;-58
2021/12/08 08:23:14;;;;;;;4.13;2.13;;;4.60;99.90;;;;;;5033691;28;20425;-60
2021/12/08 08:25:44;;;;;;;5.97;2.30;;;4.60;99.90;;;;;;5031442;28;20037;-59
2021/12/08 08:28:11;;;;;;;5.22;1.80;;;4.70;99.90;;;;;;5033604;28;20053;-63
2021/12/08 08:31:05;;;;;;;7.38;3.20;;;4.60;99.90;;;;;;5032628;28;20448;-62
2021/12/08 08:33:32;;;;;;;2.65;1.90;;;4.70;99.90;;;;;;5030599;28;20037;-59
2021/12/08 08:36:04;;;;;;;6.47;2.95;;;4.70;99.90;;;;;;5031530;28;20029;-62
2021/12/08 08:38:41;;;;;;;4.18;2.30;;;4.60;99.90;;;;;;5033017;28;20116;-57
2021/12/08 08:41:20;;;;;;;6.82;1.85;;;4.60;99.90;;;;;;5032213;28;20386;-60
2021/12/08 08:43:47;;;;;;;5.00;2.40;;;4.60;99.90;;;;;;5033319;28;20486;-60
2021/12/08 08:46:20;;;;;;;7.38;2.20;;;4.50;99.90;;;;;;5033199;28;20479;-62
2021/12/08 08:48:55;;;;;;;4.13;2.25;;;4.50;99.90;;;;;;5031967;28;20459;-59
2021/12/08 08:51:38;;;;;;;7.57;2.63;;;4.60;99.90;;;;;;5031505;28;20037;-61
2021/12/08 08:54:13;;;;;;;7.05;2.80;;;4.70;99.90;;;;;;5031709;28;20471;-60
2021/12/08 08:56:46;;;;;;;2.85;2.10;;;4.80;99.90;;;;;;5031395;28;20510;-65
2021/12/08 08:59:17;;;;;;;4.60;2.25;;;4.90;99.90;;;;;;5033242;28;20053;-61
2021/12/08 09:01:46;;;;;;;7.18;2.42;;;5.00;99.90;;;;;;5031663;28;20039;-60
2021/12/08 09:04:21;;;;;;;7.57;4.03;;;4.90;99.90;;;;;;5032935;28;20551;-60
2021/12/08 09:06:51;;;;;;;9.10;2.50;;;4.80;99.90;;;;;;5033019;28;20029;-60
2021/12/08 09:09:23;;;;;;;3.20;2.30;;;4.90;99.90;;;;;;5032404;28;20025;-60
2021/12/08 09:11:54;;;;;;;4.68;2.85;;;4.80;99.90;;;;;;5032226;28;20337;-55
2021/12/08 09:14:28;;;;;;;10.27;4.07;;;4.80;99.90;;;;;;5032096;28;20021;-78
2021/12/08 09:17:07;;;;;;;6.55;2.80;;;4.80;99.90;;;;;;5032750;28;20036;-63
2021/12/08 09:19:41;;;;;;;6.00;2.90;;;4.90;99.90;;;;;;5032027;28;20053;-61
2021/12/08 09:22:16;;;;;;;4.72;3.08;;;5.00;99.90;;;;;;5029799;28;20095;-64
2021/12/08 09:24:45;;;;;;;6.60;3.22;;;5.10;99.90;;;;;;5031845;28;20407;-59
2021/12/08 09:27:19;;;;;;;7.28;2.78;;;5.00;99.90;;;;;;5026507;28;20025;-59
2021/12/08 09:29:59;;;;;;;6.85;3.10;;;4.90;99.90;;;;;;5024631;28;20030;-62
2021/12/08 09:32:47;;;;;;;5.22;3.10;;;5.00;99.90;;;;;;5024467;28;20025;-62
2021/12/08 09:35:20;;;;;;;6.60;3.40;;;5.10;99.90;;;;;;5022013;28;20363;-60
2021/12/08 09:37:59;;;;;;;6.85;2.95;;;5.30;99.90;;;;;;5029146;28;20026;-60
2021/12/08 09:40:39;;;;;;;6.05;3.28;;;5.60;99.90;;;;;;5029088;28;20037;-62
2021/12/08 09:43:19;;;;;;;4.30;2.83;;;5.50;99.90;;;;;;5027613;28;20040;-61
2021/12/08 09:45:59;;;;;;;8.40;3.50;;;5.40;99.90;;;;;;5023353;28;20097;-61
2021/12/08 09:48:29;;;;;;;4.82;2.80;;;5.50;99.90;;;;;;5031425;28;20048;-62
2021/12/08 09:50:56;;;;;;;12.70;2.88;;;5.60;99.90;;;;;;5030449;28;20033;-56
2021/12/08 09:53:23;;;;;;;8.70;2.75;;;5.60;99.90;;;;;;5030083;28;20108;-81
2021/12/08 09:55:50;;;;;;;4.70;2.90;;;5.60;99.90;;;;;;5031379;28;20022;-61
2021/12/08 09:58:16;;;;;;;7.10;3.03;;;5.80;99.90;;;;;;5028680;28;20045;-60
2021/12/08 10:00:44;;;;;;;6.28;3.13;;;5.80;99.90;;;;;;5030004;28;20132;-60
2021/12/08 10:03:13;;;;;;;7.50;2.75;;;6.00;99.90;;;;;;5030791;28;20033;-65
2021/12/08 10:05:41;;;;;;;6.53;3.17;;;6.00;99.90;;;;;;5030490;28;20026;-61
2021/12/08 10:08:08;;;;;;;8.85;4.22;;;5.80;99.90;;;;;;5029986;28;20025;-61
2021/12/08 10:10:35;;;;;;;7.47;3.60;;;5.80;99.90;;;;;;5027897;28;20040;-60
2021/12/08 10:13:02;;;;;;;6.70;3.28;;;5.80;99.90;;;;;;5011300;28;20103;-61
2021/12/08 10:15:28;;;;;;;7.88;2.92;;;5.80;99.90;;;;;;5020556;28;20409;-65
2021/12/08 10:17:56;;;;;;;10.15;3.33;;;5.80;99.90;;;;;;5026106;28;20049;-61
2021/12/08 10:20:39;;;;;;;6.68;3.42;;;5.60;99.90;;;;;;5027488;28;20035;-61
2021/12/08 10:23:29;;;;;;;11.02;4.97;;;5.80;99.90;;;;;;5028056;28;20033;-61
2021/12/08 10:26:04;;;;;;;10.30;3.95;;;6.30;99.90;;;;;;5019803;28;20444;-61
2021/12/08 10:28:34;;;;;;;5.75;3.58;;;5.90;99.90;;;;;;5028051;28;20096;-58
2021/12/08 10:31:02;;;;;;;6.78;3.38;;;5.60;99.90;;;;;;5030564;28;20033;-56
2021/12/08 10:34:05;;;;;;;11.20;4.15;;;5.60;99.90;;;;;;5029912;28;20021;-68
2021/12/08 10:37:14;;;;;;;5.05;3.20;;;5.70;99.90;;;;;;5019602;28;20553;-61
2021/12/08 10:39:45;;;;;;;5.95;3.88;;;5.70;99.90;;;;;;5010565;28;20018;-61
2021/12/08 10:42:22;;;;;;;;;;;5.70;99.90;;;;;;5016719;28;20378;-68
2021/12/08 10:45:12;;;;;;;8.65;4.00;;;5.70;99.90;;;;;;5027408;28;19985;-68
2021/12/08 10:47:48;;;;;;;9.48;3.42;;;5.80;99.90;;;;;;5029845;28;20025;-62
2021/12/08 10:56:24;;;;;;;6.03;3.53;;;5.80;99.90;;;;;;5029397;28;20035;-62
2021/12/08 10:58:51;;;;;;;9.00;3.90;;;5.60;99.90;;;;;;5024645;28;20408;-62
2021/12/08 11:01:22;;;;;;;5.45;3.60;;;5.60;99.90;;;;;;5029907;28;20480;-61
2021/12/08 11:03:50;;;;;;;6.00;4.03;;;5.50;99.90;;;;;;5028518;28;20041;-62
2021/12/08 11:06:19;;;;;;;6.85;4.53;;;5.70;99.90;;;;;;5028378;28;20098;-62
2021/12/08 11:08:47;;;;;;;10.20;4.75;;;5.80;99.90;;;;;;5027884;28;20071;-68
2021/12/08 11:11:22;;;;;;;6.13;4.05;;;5.90;99.90;;;;;;5029129;28;20033;-62
2021/12/08 11:13:53;;;;;;;6.63;3.72;;;5.80;99.90;;;;;;5028033;28;20034;-62
2021/12/08 11:16:23;;;;;;;5.63;4.03;;;5.70;99.90;;;;;;5027567;28;20086;-59
2021/12/08 11:18:57;;;;;;;7.07;3.70;;;5.80;99.90;;;;;;5027468;28;20453;-59
2021/12/08 11:21:31;;;;;;;10.35;4.05;;;5.90;99.90;;;;;;5022464;28;20120;-80
2021/12/08 11:23:58;;;;;;;8.27;4.30;;;5.80;99.90;;;;;;5029500;28;20112;-61
2021/12/08 11:26:29;;;;;;;10.38;4.50;;;5.80;99.90;;;;;;5035148;28;20186;-68
2021/12/08 11:28:58;;;;;;;11.13;5.05;;;5.80;99.90;;;;;;5028007;28;20524;-63
2021/12/08 11:31:27;;;;;;;11.13;4.85;;;5.90;99.90;;;;;;5029683;28;20120;-77
2021/12/08 11:34:05;;;;;;;6.55;4.68;;;5.80;99.90;;;;;;5027695;28;20109;-61
2021/12/08 11:36:38;;;;;;;9.82;4.53;;;5.70;99.90;;;;;;5030297;28;20117;-60
2021/12/08 11:39:21;;;;;;;10.20;4.70;;;5.80;99.90;;;;;;5029004;28;20029;-62
2021/12/08 11:41:54;;;;;;;9.70;4.72;;;5.70;99.90;;;;;;5025347;28;20079;-67
2021/12/08 11:44:29;;;;;;;10.50;4.82;;;5.70;99.90;;;;;;5032490;28;20049;-62
2021/12/08 11:47:06;;;;;;;11.00;5.82;;;5.80;99.90;;;;;;5033048;28;20029;-62
2021/12/08 11:49:33;;;;;;;12.18;5.15;;;5.90;99.90;;;;;;5040195;28;20434;-66
2021/12/08 11:52:10;;;;;;;9.63;4.22;;;5.80;99.90;;;;;;5040579;28;20025;-62
2021/12/08 11:54:59;;;;;;;9.25;4.40;;;5.80;99.90;;;;;;5034009;28;20022;-61
2021/12/08 11:57:34;;;;;;;10.20;4.75;;;5.80;99.90;;;;;;5032805;28;20037;-64
2021/12/08 12:00:26;;;;;;;8.30;4.82;;;5.80;99.90;;;;;;5034810;28;20021;-62
2021/12/08 12:03:00;;;;;;;8.85;5.15;;;5.80;99.90;;;;;;5038772;28;20037;-61
2021/12/08 12:05:34;;;;;;;9.95;4.88;;;5.80;99.90;;;;;;5053406;28;20028;-62
2021/12/08 12:08:02;;;;;;;11.02;4.72;;;5.80;99.90;;;;;;5041936;28;20534;-61
2021/12/08 12:10:31;;;;;;;6.88;4.25;;;5.70;99.90;;;;;;5033267;28;20040;-65
2021/12/08 12:12:58;;;;;;;8.63;4.13;;;5.80;99.90;;;;;;5021335;28;20033;-62
2021/12/08 12:15:25;;;;;;;13.80;4.80;;;5.80;99.90;;;;;;5030005;28;20044;-62
2021/12/08 12:17:51;;;;;;;14.93;5.63;;;5.80;99.90;;;;;;5032708;28;20025;-60
2021/12/08 12:20:27;;;;;;;8.18;4.82;;;5.90;99.90;;;;;;5031424;28;20099;-62
2021/12/08 12:23:20;;;;;;;6.97;4.10;;;6.00;99.90;;;;;;5031292;28;20121;-61
2021/12/08 12:26:03;;;;;;;8.93;4.88;;;6.00;99.90;;;;;;5032769;28;20021;-60
2021/12/08 12:28:45;;;;;;;7.95;4.30;;;6.10;99.90;;;;;;5045395;28;20021;-62
2021/12/08 12:31:45;;;;;;;9.38;4.10;;;6.20;99.90;;;;;;5033981;28;20037;-62
2021/12/08 12:34:24;;;;;;;11.30;5.30;;;6.30;99.90;;;;;;5031055;28;20216;-62
2021/12/08 12:36:50;;;;;;;7.72;4.85;;;6.20;99.90;;;;;;5011542;28;20030;-61
2021/12/08 12:39:19;;;;;;;10.13;4.80;;;6.30;99.90;;;;;;5013502;28;20026;-60
2021/12/08 12:42:00;;;;;;;7.35;4.85;;;6.30;99.90;;;;;;5016538;28;20121;-59
2021/12/08 12:44:30;;;;;;;8.95;4.57;;;6.30;99.90;;;;;;5030672;28;20082;-83
2021/12/08 12:47:24;;;;;;;12.18;4.35;;;6.30;99.90;;;;;;5031612;28;20128;-61
2021/12/08 12:50:07;;;;;;;7.55;4.88;;;6.20;99.90;;;;;;5032078;28;20324;-61
2021/12/08 12:52:55;;;;;;;11.30;5.35;;;6.30;99.90;;;;;;5046882;28;20033;-62
2021/12/08 12:55:23;;;;;;;13.13;6.88;;;6.40;99.90;;;;;;5028467;28;20356;-61
2021/12/08 12:58:04;;;;;;;12.88;6.78;;;6.50;99.90;;;;;;5030614;28;20021;-61
2021/12/08 13:00:34;;;;;;;14.68;6.57;;;6.60;99.90;;;;;;5030232;28;20095;-63
2021/12/08 13:03:01;;;;;;;15.13;8.95;;;6.50;99.90;;;;;;5032527;28;20037;-60
2021/12/08 13:05:50;;;;;;;15.23;7.88;;;6.40;99.90;;;;;;5031992;28;20127;-78
2021/12/08 13:08:36;;;;;;;12.27;8.25;;;6.60;99.90;;;;;;5031953;28;20026;-60
2021/12/08 13:11:21;;;;;;;18.80;8.52;;;6.60;99.90;;;;;;5031181;28;20105;-61
2021/12/08 13:13:50;;;;;;;14.48;8.57;;;6.70;99.90;;;;;;5031480;28;20230;-61
2021/12/08 13:16:27;;;;;;;13.13;7.72;;;6.60;99.90;;;;;;5030828;28;20047;-51
2021/12/08 13:19:00;;;;;;;15.60;9.02;;;6.80;99.90;;;;;;5029584;28;20111;-51
2021/12/08 13:21:42;;;;;;;14.38;8.30;;;7.20;99.90;;;;;;5030932;28;20025;-56
2021/12/08 13:24:32;;;;;;;12.73;9.18;;;7.00;99.90;;;;;;5032228;28;20336;-62
2021/12/08 13:27:03;;;;;;;15.63;8.10;;;6.80;99.90;;;;;;5031754;28;20056;-61
2021/12/08 13:29:31;;;;;;;15.33;9.10;;;6.80;99.90;;;;;;5029635;28;20487;-75
2021/12/08 13:32:10;;;;;;;14.95;9.13;;;6.80;99.90;;;;;;5030423;28;20036;-61
2021/12/08 13:34:37;;;;;;;15.57;8.55;;;6.90;99.90;;;;;;5031674;28;20040;-61
2021/12/08 13:37:35;;;;;;;18.20;8.40;;;6.90;99.90;;;;;;5030430;28;20087;-61
2021/12/08 13:40:09;;;;;;;13.13;9.40;;;6.90;99.90;;;;;;5018326;28;20034;-64
2021/12/08 13:42:50;;;;;;;18.15;8.35;;;6.70;99.90;;;;;;5031182;28;20041;-62
2021/12/08 13:45:17;;;;;;;15.60;7.80;;;6.70;99.90;;;;;;5031079;28;20028;-62
2021/12/08 13:47:45;;;;;;;14.70;8.60;;;6.60;99.90;;;;;;5029620;28;20295;-61
2021/12/08 13:50:23;;;;;;;13.23;8.05;;;6.50;99.90;;;;;;5031347;28;20128;-66
2021/12/08 13:52:54;;;;;;;33.35;9.77;;;6.50;99.90;;;;;;5029454;28;20026;-68
2021/12/08 13:55:23;;;;;;;12.82;8.05;;;6.50;99.90;;;;;;5030017;28;20124;-60
2021/12/08 13:57:56;;;;;;;14.88;9.18;;;6.50;99.90;;;;;;5029420;28;20131;-62
2021/12/08 14:00:27;;;;;;;16.63;8.93;;;6.60;99.90;;;;;;5029547;28;20501;-62
2021/12/08 14:03:08;;;;;;;17.92;10.02;;;6.50;99.90;;;;;;5030856;28;20095;-62
2021/12/08 14:05:47;;;;;;;20.33;8.38;;;6.60;99.90;;;;;;5030826;28;20120;-62
2021/12/08 14:08:35;;;;;;;13.02;7.82;;;6.70;99.90;;;;;;5030186;28;20045;-59
2021/12/08 14:11:13;;;;;;;16.70;8.60;;;6.50;99.90;;;;;;5029764;28;20029;-62